Time;durP1;ratioP1;P1;durP2;ratioP2;P2;SDS_P1;SDS_P2;PMS_P1;PMS_P2;Temp;Humidity;BMP_temperature;BMP_pressure;BME280_temperature;BME280_humidity;BME280_pressure;Samples;Min_cycle;Max_cycle;Signal;HPM_P1;HPM_P2
2021/12/26 00:02:07;;;;;;;7.93;3.97;;;;;;;-1.77;100.00;99982.81;5588555;31;34440;-70
2021/12/26 00:05:11;;;;;;;6.70;3.70;;;;;;;-1.66;100.00;99983.88;5587610;31;34051;-70
2021/12/26 00:08:14;;;;;;;9.82;4.30;;;;;;;-1.67;100.00;99982.22;5587979;31;33955;-70
2021/12/26 00:11:17;;;;;;;8.15;4.00;;;;;;;-1.74;100.00;99981.78;5587851;31;34702;-68
2021/12/26 00:14:20;;;;;;;7.82;4.20;;;;;;;-1.78;100.00;99972.50;5590067;31;34632;-71
2021/12/26 00:17:23;;;;;;;8.32;4.30;;;;;;;-1.93;100.00;99970.91;5589955;31;33885;-68
2021/12/26 00:20:27;;;;;;;9.40;4.50;;;;;;;-1.95;100.00;99980.56;5590587;31;35187;-68
2021/12/26 00:23:31;;;;;;;10.52;4.32;;;;;;;-2.01;100.00;99975.75;5590856;31;34018;-69
2021/12/26 00:26:35;;;;;;;10.73;4.25;;;;;;;-1.96;100.00;99977.13;5590755;31;33923;-70
2021/12/26 00:29:38;;;;;;;8.43;4.68;;;;;;;-1.99;100.00;99974.75;5590617;31;33964;-69
2021/12/26 00:32:42;;;;;;;9.07;4.37;;;;;;;-1.82;100.00;99973.66;5589658;31;35217;-69
2021/12/26 00:35:45;;;;;;;6.70;4.00;;;;;;;-1.71;100.00;99978.16;5590613;31;34045;-68
2021/12/26 00:38:49;;;;;;;7.47;4.20;;;;;;;-1.66;100.00;99982.12;5590637;31;33968;-69
2021/12/26 00:41:53;;;;;;;7.05;3.40;;;;;;;-1.64;100.00;99985.44;5590893;31;34283;-68
2021/12/26 00:44:55;;;;;;;7.03;3.30;;;;;;;-1.83;100.00;99983.22;5590560;31;33909;-68
2021/12/26 00:47:58;;;;;;;9.68;3.83;;;;;;;-1.87;100.00;99991.31;5589716;31;34549;-69
2021/12/26 00:51:02;;;;;;;7.43;3.72;;;;;;;-1.82;100.00;99984.88;5590445;31;33918;-69
2021/12/26 00:54:05;;;;;;;9.63;4.15;;;;;;;-1.68;100.00;99988.34;5590350;31;34056;-68
2021/12/26 00:57:08;;;;;;;8.60;3.60;;;;;;;-1.70;100.00;99985.03;5590409;31;33940;-68
2021/12/26 01:00:21;;;;;;;7.37;3.72;;;;;;;-1.50;100.00;99987.16;5589899;31;34674;-69
2021/12/26 01:03:23;;;;;;;6.40;3.50;;;;;;;-1.59;100.00;99990.34;5590648;31;33971;-68
2021/12/26 01:06:28;;;;;;;6.82;3.58;;;;;;;-1.46;100.00;99993.81;5590392;31;34071;-69
2021/12/26 01:09:31;;;;;;;6.80;3.55;;;;;;;-1.57;100.00;99991.09;5590248;31;35251;-69
2021/12/26 01:12:35;;;;;;;6.55;3.45;;;;;;;-1.69;100.00;99987.50;5590190;31;34504;-69
2021/12/26 01:15:38;;;;;;;7.87;3.40;;;;;;;-1.56;100.00;99992.75;5590574;31;33914;-69
2021/12/26 01:18:51;;;;;;;9.15;3.90;;;;;;;-1.54;100.00;99996.06;5590514;31;34073;-68
2021/12/26 01:21:55;;;;;;;7.85;3.50;;;;;;;-1.69;100.00;100003.13;5590196;31;34120;-69
2021/12/26 01:24:59;;;;;;;9.60;3.42;;;;;;;-1.61;100.00;99994.81;5588463;31;34590;-69
2021/12/26 01:28:03;;;;;;;8.52;3.37;;;;;;;-1.56;100.00;99992.75;5590345;31;34120;-69
2021/12/26 01:31:07;;;;;;;6.05;3.10;;;;;;;-1.57;100.00;100010.13;5589165;31;34611;-69
2021/12/26 01:34:10;;;;;;;9.13;3.80;;;;;;;-1.63;100.00;100000.13;5590102;31;33899;-69
2021/12/26 01:37:15;;;;;;;8.63;3.53;;;;;;;-1.66;100.00;100002.94;5589324;31;35258;-68
2021/12/26 01:40:20;;;;;;;9.50;3.90;;;;;;;-1.68;100.00;100011.75;5590413;31;34613;-68
2021/12/26 01:43:30;;;;;;;9.45;3.67;;;;;;;-1.78;100.00;100017.53;5589823;31;34296;-69
2021/12/26 01:46:32;;;;;;;5.97;3.62;;;;;;;-1.81;100.00;100009.97;5589939;31;34358;-68
2021/12/26 01:49:36;;;;;;;6.40;3.90;;;;;;;-1.83;100.00;100011.81;5589923;31;34250;-68
2021/12/26 01:52:40;;;;;;;7.35;3.90;;;;;;;-1.76;100.00;100009.66;5589135;31;34512;-68
2021/12/26 01:55:47;;;;;;;10.65;3.85;;;;;;;-1.72;100.00;99997.28;5589861;31;34740;-68
2021/12/26 01:58:49;;;;;;;7.50;4.03;;;;;;;-1.70;100.00;100003.22;5590232;31;32870;-68
2021/12/26 02:01:57;;;;;;;6.65;3.50;;;;;;;-1.69;100.00;100007.50;5590073;31;34635;-68
2021/12/26 02:05:01;;;;;;;10.88;3.97;;;;;;;-1.70;100.00;100005.84;5590170;31;34712;-68
2021/12/26 02:08:05;;;;;;;7.78;3.90;;;;;;;-1.64;100.00;100006.25;5590057;31;33981;-68
2021/12/26 02:11:09;;;;;;;6.37;3.78;;;;;;;-1.65;100.00;100002.00;5589053;31;35282;-69
2021/12/26 02:14:13;;;;;;;8.05;4.90;;;;;;;-1.70;100.00;99990.22;5588974;31;34784;-69
2021/12/26 02:17:19;;;;;;;8.40;4.40;;;;;;;-1.64;100.00;99989.81;5589349;31;33949;-68
2021/12/26 02:23:44;;;;;;;7.15;4.50;;;;;;;-1.64;100.00;99993.25;5589692;31;34588;-69
2021/12/26 02:30:12;;;;;;;6.05;3.70;;;;;;;-1.49;100.00;99987.03;5589975;31;34265;-68
2021/12/26 02:33:16;;;;;;;5.03;3.65;;;;;;;-1.50;100.00;99987.97;5589845;31;34689;-68
2021/12/26 02:36:19;;;;;;;8.57;3.15;;;;;;;-1.60;100.00;99984.34;5588483;31;34343;-68
2021/12/26 02:39:22;;;;;;;5.18;3.05;;;;;;;-1.49;100.00;99987.03;5589544;31;35126;-69
2021/12/26 02:42:26;;;;;;;5.80;3.05;;;;;;;-1.54;100.00;99996.91;5589753;31;33918;-69
2021/12/26 02:45:29;;;;;;;4.05;2.80;;;;;;;-1.46;100.00;100007.66;5589233;31;34813;-68
2021/12/26 02:48:34;;;;;;;5.05;2.65;;;;;;;-1.53;100.00;99992.56;5588850;31;34537;-68
2021/12/26 02:51:36;;;;;;;6.28;2.72;;;;;;;-1.53;100.00;100008.16;5589629;31;34606;-69
2021/12/26 02:54:40;;;;;;;4.95;2.45;;;;;;;-1.52;100.00;100012.44;5589305;31;34610;-68
2021/12/26 02:57:56;;;;;;;4.93;2.92;;;;;;;-1.58;100.00;100000.66;5589607;31;34494;-68
2021/12/26 03:01:05;;;;;;;4.25;2.53;;;;;;;-1.55;100.00;100003.03;5589143;31;35161;-68
2021/12/26 03:04:09;;;;;;;6.15;2.80;;;;;;;-1.46;100.00;100012.03;5589084;31;34578;-68
2021/12/26 03:07:13;;;;;;;4.60;2.53;;;;;;;-1.47;100.00;100010.34;5589084;31;35115;-68
2021/12/26 03:10:23;;;;;;;3.60;2.33;;;;;;;-1.38;100.00;100010.59;5588319;31;33955;-68
2021/12/26 03:13:26;;;;;;;4.37;2.70;;;;;;;-1.46;100.00;100007.66;5589026;31;33980;-68
2021/12/26 03:16:29;;;;;;;5.53;3.03;;;;;;;-1.41;100.00;100012.56;5588776;31;34027;-68
2021/12/26 03:19:34;;;;;;;4.22;2.85;;;;;;;-1.46;100.00;100005.06;5589170;31;33918;-68
2021/12/26 03:22:37;;;;;;;5.95;3.03;;;;;;;-1.54;100.00;100004.72;5588780;31;34195;-68
2021/12/26 03:25:42;;;;;;;5.47;3.20;;;;;;;-1.45;100.00;100001.50;5588805;31;34284;-68
2021/12/26 03:28:44;;;;;;;4.78;2.87;;;;;;;-1.42;100.00;100006.53;5588812;31;34449;-68
2021/12/26 03:31:47;;;;;;;5.22;2.85;;;;;;;-1.43;100.00;100004.84;5588867;31;34358;-68
2021/12/26 03:34:50;;;;;;;4.78;2.97;;;;;;;-1.30;100.00;99989.25;5588640;31;34565;-68
2021/12/26 03:37:57;;;;;;;5.45;2.80;;;;;;;-1.31;100.00;100001.44;5588513;31;35265;-68
2021/12/26 03:41:09;;;;;;;4.72;2.90;;;;;;;-1.23;100.00;99998.34;5588207;31;33982;-70
2021/12/26 03:44:13;;;;;;;4.07;2.37;;;;;;;-1.35;100.00;100002.56;5588714;31;33913;-68
2021/12/26 03:47:17;;;;;;;4.07;2.45;;;;;;;-1.31;100.00;99996.22;5587587;31;35378;-69
2021/12/26 03:50:22;;;;;;;3.30;1.92;;;;;;;-1.30;100.00;100002.25;5590210;31;33942;-68
2021/12/26 03:53:25;;;;;;;6.95;2.35;;;;;;;-1.27;100.00;100003.84;5590930;31;34731;-68
2021/12/26 03:56:28;;;;;;;5.75;2.53;;;;;;;-1.34;100.00;99998.19;5591249;31;33927;-70
2021/12/26 03:59:31;;;;;;;3.40;2.15;;;;;;;-1.25;100.00;99992.38;5590922;31;33933;-68
2021/12/26 04:02:34;;;;;;;3.03;2.15;;;;;;;-1.33;100.00;99995.50;5591210;31;33882;-68
2021/12/26 04:05:38;;;;;;;3.90;1.73;;;;;;;-1.40;100.00;99994.22;5591149;31;34015;-68
2021/12/26 04:08:41;;;;;;;3.53;2.10;;;;;;;-1.39;99.81;99995.91;5590823;31;35155;-67
2021/12/26 04:11:45;;;;;;;3.30;1.98;;;;;;;-1.31;100.00;99980.59;5590054;31;33935;-68
2021/12/26 04:14:48;;;;;;;3.30;2.05;;;;;;;-1.23;100.00;99995.72;5590875;31;34058;-68
2021/12/26 04:17:54;;;;;;;2.70;1.90;;;;;;;-1.22;98.05;100002.59;5590624;31;34264;-68
2021/12/26 04:20:57;;;;;;;2.37;1.50;;;;;;;-1.29;97.78;99996.13;5590711;31;33998;-70
2021/12/26 04:24:03;;;;;;;4.12;1.87;;;;;;;-1.33;97.78;99997.28;5590762;31;34587;-68
2021/12/26 04:27:05;;;;;;;2.60;1.48;;;;;;;-1.24;94.11;99982.81;5589736;31;34657;-69
2021/12/26 04:30:12;;;;;;;2.03;1.42;;;;;;;-1.31;94.29;99992.81;5590795;31;34037;-69
2021/12/26 04:33:15;;;;;;;2.75;1.55;;;;;;;-1.36;90.55;99995.72;5590858;31;33905;-69
2021/12/26 04:36:20;;;;;;;4.00;1.50;;;;;;;-1.19;89.76;100004.16;5590561;31;34046;-69
2021/12/26 04:39:22;;;;;;;2.67;1.40;;;;;;;-1.26;87.78;100006.34;5590571;31;34368;-69
2021/12/26 04:42:25;;;;;;;2.78;1.67;;;;;;;-1.35;88.29;100010.37;5590583;31;34110;-69
2021/12/26 04:45:31;;;;;;;2.80;1.15;;;;;;;-1.27;88.69;100017.69;5590954;31;34003;-69
2021/12/26 04:48:42;;;;;;;4.07;1.73;;;;;;;-1.25;89.05;100021.00;5590418;31;34356;-69
2021/12/26 04:51:45;;;;;;;2.20;1.15;;;;;;;-1.23;88.03;100028.72;5590470;31;34699;-69
2021/12/26 04:54:48;;;;;;;2.80;1.40;;;;;;;-1.26;86.94;100019.38;5590802;31;33954;-69
2021/12/26 04:57:51;;;;;;;3.78;1.45;;;;;;;-1.37;86.66;100024.44;5590601;31;34013;-69
2021/12/26 05:00:54;;;;;;;2.25;1.30;;;;;;;-1.37;87.14;100030.47;5590368;31;33487;-69
2021/12/26 05:03:57;;;;;;;1.80;1.20;;;;;;;-1.37;84.95;100033.06;5590304;31;33368;-69
2021/12/26 05:07:00;;;;;;;2.35;1.30;;;;;;;-1.36;87.16;100034.75;5590507;31;34413;-69
2021/12/26 05:10:07;;;;;;;3.60;1.45;;;;;;;-1.23;85.10;100031.31;5590286;31;34740;-69
2021/12/26 05:13:10;;;;;;;2.62;1.40;;;;;;;-1.28;85.26;100036.84;5590265;31;34044;-69
2021/12/26 05:16:13;;;;;;;3.33;1.40;;;;;;;-1.22;85.56;100036.44;5590184;31;33932;-69
2021/12/26 05:19:16;;;;;;;4.47;1.45;;;;;;;-1.23;84.83;100037.37;5590632;31;34109;-69
2021/12/26 05:22:20;;;;;;;2.47;1.27;;;;;;;-1.27;83.16;100037.66;5589455;31;35291;-69
2021/12/26 05:25:24;;;;;;;3.65;1.30;;;;;;;-1.20;82.17;100042.34;5590190;31;34116;-69
2021/12/26 05:28:27;;;;;;;2.35;1.30;;;;;;;-1.19;82.81;100046.63;5589938;31;33857;-69
2021/12/26 05:31:30;;;;;;;3.35;1.30;;;;;;;-1.36;82.75;100050.37;5590362;31;34271;-69
2021/12/26 05:34:33;;;;;;;1.50;1.17;;;;;;;-1.36;80.74;100055.56;5590121;31;35201;-69
2021/12/26 05:37:38;;;;;;;3.33;1.70;;;;;;;-1.31;82.45;100055.25;5590112;31;34302;-69
2021/12/26 05:40:40;;;;;;;3.10;1.70;;;;;;;-1.23;81.40;100054.75;5590390;31;34649;-69
2021/12/26 05:43:43;;;;;;;2.08;1.17;;;;;;;-1.28;81.74;100057.66;5589998;31;33937;-69
2021/12/26 05:46:46;;;;;;;2.58;1.27;;;;;;;-1.39;80.18;100057.50;5589993;31;33995;-69
2021/12/26 05:49:50;;;;;;;2.90;1.30;;;;;;;-1.31;80.51;100063.87;5589471;31;34602;-69
2021/12/26 05:52:52;;;;;;;4.35;1.40;;;;;;;-1.35;80.08;100061.56;5589978;31;34782;-69
2021/12/26 05:55:56;;;;;;;2.25;1.23;;;;;;;-1.21;79.82;100068.50;5589942;31;33893;-69
2021/12/26 05:59:05;;;;;;;2.47;1.30;;;;;;;-1.26;80.53;100067.97;5590165;31;34587;-69
2021/12/26 06:02:08;;;;;;;2.47;1.20;;;;;;;-1.22;77.76;100074.63;5589849;31;34016;-69
2021/12/26 06:05:12;;;;;;;2.33;1.17;;;;;;;-1.30;76.43;100072.53;5590002;31;33401;-69
2021/12/26 06:08:14;;;;;;;1.70;1.17;;;;;;;-1.09;76.51;100091.09;5589025;31;33995;-69
2021/12/26 06:11:17;;;;;;;2.87;1.23;;;;;;;-1.18;76.10;100089.94;5589536;31;34478;-69
2021/12/26 06:14:21;;;;;;;2.55;1.20;;;;;;;-1.18;74.73;100094.31;5590056;31;34632;-69
2021/12/26 06:17:24;;;;;;;3.67;1.35;;;;;;;-1.19;74.16;100093.47;5589838;31;33918;-69
2021/12/26 06:20:29;;;;;;;4.07;1.30;;;;;;;-1.16;73.09;100101.06;5588840;31;34224;-69
2021/12/26 06:23:35;;;;;;;2.97;1.10;;;;;;;-1.25;74.42;100112.09;5588842;31;33872;-69
2021/12/26 06:26:39;;;;;;;1.73;0.93;;;;;;;-1.24;72.96;100110.31;5589786;31;33985;-69
2021/12/26 06:29:43;;;;;;;2.25;1.33;;;;;;;-1.26;73.43;100107.84;5589910;31;34801;-69
2021/12/26 06:32:51;;;;;;;3.05;1.17;;;;;;;-1.14;73.02;100108.78;5589367;31;32499;-69
2021/12/26 06:35:57;;;;;;;3.12;1.23;;;;;;;-1.14;73.65;100112.22;5589900;31;34018;-69
2021/12/26 06:39:02;;;;;;;2.83;1.10;;;;;;;-1.10;71.28;100118.06;5589087;31;34061;-69
2021/12/26 06:42:10;;;;;;;4.05;1.20;;;;;;;-1.19;73.73;100118.66;5588600;31;34594;-69
2021/12/26 06:45:18;;;;;;;2.33;1.35;;;;;;;-1.11;73.31;100122.44;5589788;31;35223;-69
2021/12/26 06:48:23;;;;;;;2.17;1.37;;;;;;;-1.18;72.58;100125.56;5588635;31;34487;-69
2021/12/26 06:51:26;;;;;;;3.67;1.40;;;;;;;-1.15;72.57;100128.78;5588733;31;34185;-69
2021/12/26 06:54:29;;;;;;;2.45;1.25;;;;;;;-1.14;76.24;100120.03;5589366;31;34648;-69
2021/12/26 06:57:32;;;;;;;6.43;1.17;;;;;;;-1.14;74.97;100129.63;5589257;31;33891;-69
2021/12/26 07:00:35;;;;;;;2.33;1.30;;;;;;;-1.12;71.90;100133.81;5589208;31;35210;-69
2021/12/26 07:03:38;;;;;;;2.05;1.12;;;;;;;-1.14;72.21;100137.44;5589658;31;33930;-69
2021/12/26 07:06:41;;;;;;;2.20;1.02;;;;;;;-1.23;71.64;100138.87;5589099;31;34013;-69
2021/12/26 07:09:45;;;;;;;6.87;1.55;;;;;;;-1.18;72.07;100139.41;5575772;31;33797;-69
2021/12/26 07:12:48;;;;;;;2.47;1.08;;;;;;;-1.09;73.10;100135.34;5589368;31;33886;-69
2021/12/26 07:15:52;;;;;;;3.60;1.40;;;;;;;-1.12;74.19;100133.81;5589332;31;34642;-69
2021/12/26 07:18:55;;;;;;;3.65;1.33;;;;;;;-0.91;72.37;100139.34;5588932;31;33882;-69
2021/12/26 07:22:00;;;;;;;2.25;1.30;;;;;;;-1.04;72.41;100138.50;5589109;31;34134;-69
2021/12/26 07:25:05;;;;;;;3.00;1.40;;;;;;;-1.04;72.06;100144.53;5591249;31;34041;-69
2021/12/26 07:28:08;;;;;;;4.00;1.50;;;;;;;-1.13;72.86;100146.91;5590696;31;34032;-69
2021/12/26 07:31:13;;;;;;;2.78;1.20;;;;;;;-1.15;70.55;100156.56;5590613;31;34609;-69
2021/12/26 07:34:16;;;;;;;2.58;1.50;;;;;;;-1.00;71.26;100153.81;5591213;31;34063;-69
2021/12/26 07:37:20;;;;;;;2.45;1.35;;;;;;;-1.10;71.35;100151.91;5590337;31;34597;-69
2021/12/26 07:40:24;;;;;;;2.20;1.20;;;;;;;-1.15;69.88;100159.19;5591447;31;34611;-69
2021/12/26 07:43:28;;;;;;;3.25;1.52;;;;;;;-1.09;71.03;100154.41;5590552;31;34383;-69
2021/12/26 07:46:35;;;;;;;7.65;2.72;;;;;;;-0.98;71.63;100153.72;5590141;31;34334;-69
2021/12/26 07:49:38;;;;;;;1.98;1.27;;;;;;;-0.95;71.03;100151.75;5590855;31;33891;-69
2021/12/26 07:52:54;;;;;;;3.30;1.40;;;;;;;-0.77;68.53;100157.50;5590217;31;32224;-69
2021/12/26 07:56:14;;;;;;;;;;;;;;;-0.89;69.29;100163.53;5590157;31;33089;-68
2021/12/26 07:59:32;;;;;;;3.22;1.35;;;;;;;-0.76;68.10;100172.19;5590686;31;34441;-69
2021/12/26 08:02:51;;;;;;;1.83;1.30;;;;;;;-0.74;68.69;100172.13;5590927;31;34057;-69
2021/12/26 08:05:57;;;;;;;3.47;1.40;;;;;;;-0.78;67.93;100179.31;5591388;31;33334;-69
2021/12/26 08:09:01;;;;;;;3.05;1.60;;;;;;;-0.81;66.45;100181.25;5591164;31;34339;-69
2021/12/26 08:12:05;;;;;;;3.22;1.20;;;;;;;-0.54;66.40;100184.66;5590861;31;34367;-68
2021/12/26 08:15:08;;;;;;;3.65;1.30;;;;;;;-0.49;69.43;100179.97;5591013;31;33955;-69
2021/12/26 08:18:12;;;;;;;3.85;1.50;;;;;;;-0.36;65.32;100180.81;5590804;31;34245;-69
2021/12/26 08:21:14;;;;;;;4.30;1.55;;;;;;;-0.40;65.59;100174.12;5590640;31;34121;-69
2021/12/26 08:24:17;;;;;;;4.55;1.60;;;;;;;-0.25;64.94;100177.47;5590675;31;34266;-66
2021/12/26 08:27:20;;;;;;;4.65;1.30;;;;;;;-0.33;67.26;100167.56;5590650;31;34620;-67
2021/12/26 08:30:26;;;;;;;2.85;1.58;;;;;;;-0.57;65.42;100172.66;5589942;31;34016;-69
2021/12/26 08:33:28;;;;;;;3.33;1.33;;;;;;;-0.33;64.74;100179.75;5590267;31;34264;-68
2021/12/26 08:36:31;;;;;;;3.08;1.40;;;;;;;-0.14;62.24;100178.41;5590899;31;34027;-67
2021/12/26 08:39:37;;;;;;;3.62;1.50;;;;;;;-0.12;59.93;100184.34;5590581;31;33890;-69
2021/12/26 08:42:40;;;;;;;8.10;1.80;;;;;;;-0.45;63.24;100171.00;5590909;31;34519;-68
2021/12/26 08:45:43;;;;;;;2.65;1.40;;;;;;;-0.46;62.63;100177.16;5590559;31;33941;-67
2021/12/26 08:48:47;;;;;;;3.12;1.40;;;;;;;-0.12;63.20;100183.53;5590114;31;33963;-68
2021/12/26 08:51:50;;;;;;;3.53;1.50;;;;;;;-0.27;62.28;100195.81;5590299;31;34095;-67
2021/12/26 08:54:53;;;;;;;4.55;1.58;;;;;;;-0.33;61.05;100196.22;5589538;31;34156;-68
2021/12/26 08:57:55;;;;;;;3.40;1.55;;;;;;;-0.04;59.84;100196.84;5590451;31;34689;-69
2021/12/26 09:00:58;;;;;;;3.15;1.60;;;;;;;-0.05;59.82;100195.22;5590256;31;34040;-68
2021/12/26 09:04:01;;;;;;;2.67;1.30;;;;;;;0.16;59.09;100200.72;5590149;31;34100;-69
2021/12/26 09:07:06;;;;;;;3.08;1.37;;;;;;;0.09;59.96;100200.31;5590423;31;35279;-68
2021/12/26 09:10:11;;;;;;;2.25;1.33;;;;;;;-0.32;58.74;100191.84;5590291;31;34283;-66
2021/12/26 09:13:14;;;;;;;5.45;1.77;;;;;;;-0.56;59.69;100181.31;5590336;31;33964;-69
2021/12/26 09:16:16;;;;;;;3.08;1.37;;;;;;;-0.35;59.71;100174.66;5589510;31;34070;-67
2021/12/26 09:19:20;;;;;;;3.00;1.75;;;;;;;-0.52;58.01;100180.16;5589754;31;33945;-68
2021/12/26 09:22:22;;;;;;;2.62;1.25;;;;;;;-0.41;59.62;100171.63;5590047;31;34686;-68
2021/12/26 09:25:25;;;;;;;3.30;1.40;;;;;;;-0.71;58.44;100172.72;5590232;31;35574;-68
2021/12/26 09:28:28;;;;;;;2.60;1.25;;;;;;;-0.74;59.04;100167.75;5590007;31;34603;-69
2021/12/26 09:31:31;;;;;;;2.95;1.37;;;;;;;-0.49;59.55;100159.97;5589776;31;33932;-69
2021/12/26 09:34:35;;;;;;;2.85;1.58;;;;;;;-0.41;59.53;100150.78;5590035;31;33540;-69
2021/12/26 09:37:38;;;;;;;3.78;1.80;;;;;;;-0.35;59.64;100159.03;5589904;31;33983;-68
2021/12/26 09:40:40;;;;;;;4.60;1.85;;;;;;;-0.48;60.02;100153.78;5589943;31;35319;-68
2021/12/26 09:43:43;;;;;;;3.60;1.70;;;;;;;-0.46;59.84;100149.31;5589863;31;34014;-68
2021/12/26 09:46:46;;;;;;;3.60;1.60;;;;;;;0.01;58.50;100147.81;5589559;31;33955;-68
2021/12/26 09:49:49;;;;;;;3.85;1.70;;;;;;;0.24;60.37;100151.47;5589899;31;34598;-67
2021/12/26 09:52:53;;;;;;;3.62;1.60;;;;;;;0.46;57.54;100158.59;5589665;31;34342;-69
2021/12/26 09:55:56;;;;;;;4.40;1.90;;;;;;;0.08;56.31;100153.47;5589988;31;34152;-67
2021/12/26 09:59:08;;;;;;;4.55;1.77;;;;;;;0.51;54.86;100154.72;5590186;31;34002;-67
2021/12/26 10:02:16;;;;;;;2.97;1.35;;;;;;;0.38;53.67;100156.53;5589493;31;34056;-67
2021/12/26 10:05:21;;;;;;;2.80;1.30;;;;;;;0.52;53.97;100155.56;5589771;31;34647;-67
2021/12/26 10:08:25;;;;;;;2.60;1.35;;;;;;;0.42;51.68;100145.78;5589699;31;34104;-67
2021/12/26 10:11:34;;;;;;;3.15;1.42;;;;;;;0.76;52.84;100144.19;5589673;31;34083;-69
2021/12/26 10:14:40;;;;;;;2.65;1.12;;;;;;;0.77;51.72;100147.62;5589797;31;34122;-67
2021/12/26 10:17:43;;;;;;;6.75;1.40;;;;;;;0.57;51.53;100140.41;5588872;31;34679;-67
2021/12/26 10:20:46;;;;;;;3.87;1.62;;;;;;;0.75;50.88;100139.91;5589562;31;34040;-67
2021/12/26 10:23:49;;;;;;;7.22;1.50;;;;;;;0.51;50.60;100135.59;5589555;31;35276;-67
2021/12/26 10:27:01;;;;;;;5.05;1.62;;;;;;;0.80;50.27;100135.19;5584620;31;124998;-67
2021/12/26 10:30:06;;;;;;;3.08;1.48;;;;;;;0.59;51.16;100134.09;5589638;31;34625;-67
2021/12/26 10:33:08;;;;;;;4.87;1.98;;;;;;;0.49;50.97;100133.09;5589510;31;34389;-67
2021/12/26 10:36:11;;;;;;;3.70;1.27;;;;;;;0.56;51.77;100129.13;5589835;31;34046;-69
2021/12/26 10:39:18;;;;;;;4.53;1.73;;;;;;;0.48;53.26;100138.44;5589473;31;34608;-68
2021/12/26 10:42:24;;;;;;;5.80;1.77;;;;;;;0.66;50.87;100137.97;5589416;31;33973;-67
2021/12/26 10:45:30;;;;;;;8.68;1.62;;;;;;;0.70;50.99;100130.72;5589240;31;35338;-69
2021/12/26 10:48:33;;;;;;;2.50;1.30;;;;;;;0.60;50.76;100125.34;5589361;31;34586;-68
2021/12/26 10:51:35;;;;;;;2.90;1.35;;;;;;;0.69;49.85;100121.22;5589175;31;34141;-69
2021/12/26 10:54:41;;;;;;;4.15;1.70;;;;;;;0.59;50.63;100126.28;5589316;31;34048;-69
2021/12/26 10:57:50;;;;;;;2.72;1.52;;;;;;;0.80;50.18;100124.72;5588981;31;34133;-68
2021/12/26 11:00:56;;;;;;;2.80;1.65;;;;;;;0.91;49.53;100118.72;5588968;31;33927;-69
2021/12/26 11:04:06;;;;;;;3.42;1.60;;;;;;;0.87;50.71;100125.13;5588399;31;34534;-69
2021/12/26 11:07:10;;;;;;;3.58;1.58;;;;;;;0.73;49.10;100123.50;5589123;31;34291;-69
2021/12/26 11:10:16;;;;;;;2.72;1.62;;;;;;;0.46;50.32;100125.50;5589269;31;34680;-69
2021/12/26 11:13:22;;;;;;;4.75;1.58;;;;;;;0.57;49.59;100117.75;5588515;31;33886;-68
2021/12/26 11:16:37;;;;;;;4.28;1.80;;;;;;;0.47;51.68;100123.72;5588850;31;34353;-68
2021/12/26 11:19:42;;;;;;;5.43;1.80;;;;;;;0.51;50.64;100123.41;5589000;31;33922;-69
2021/12/26 11:22:45;;;;;;;3.85;1.83;;;;;;;0.61;51.27;100123.56;5588924;31;33985;-69
2021/12/26 11:25:54;;;;;;;4.32;1.80;;;;;;;0.48;50.09;100115.78;5588042;31;34021;-69
2021/12/26 11:28:57;;;;;;;4.43;1.40;;;;;;;0.64;51.76;100116.34;5588506;31;34584;-68
2021/12/26 11:32:00;;;;;;;3.00;1.48;;;;;;;1.00;50.00;100114.59;5588433;31;34635;-69
2021/12/26 11:35:05;;;;;;;6.68;1.52;;;;;;;0.85;48.65;100119.16;5588837;31;34585;-68
2021/12/26 11:38:12;;;;;;;3.45;1.70;;;;;;;0.78;48.87;100110.09;5588555;31;33994;-68
2021/12/26 11:41:40;;;;;;;4.07;1.50;;;;;;;0.81;47.77;100104.69;5588765;31;34074;-68
2021/12/26 11:45:28;;;;;;;2.33;1.30;;;;;;;0.81;47.86;100105.50;5588238;31;34059;-69
2021/12/26 11:49:12;;;;;;;4.28;1.70;;;;;;;0.81;49.67;100118.56;5588289;31;33884;-68
2021/12/26 11:52:20;;;;;;;3.05;1.60;;;;;;;0.94;50.16;100110.66;5588573;31;32625;-68
2021/12/26 11:55:58;;;;;;;3.60;1.52;;;;;;;1.14;49.85;100106.56;5588293;31;34579;-69
2021/12/26 11:59:30;;;;;;;4.00;1.65;;;;;;;1.38;48.36;100122.19;5588277;31;34057;-68
2021/12/26 12:02:35;;;;;;;4.20;1.70;;;;;;;1.44;48.45;100124.34;5587264;31;34246;-68
2021/12/26 12:05:40;;;;;;;4.00;1.80;;;;;;;1.06;47.74;100122.81;5587409;31;33949;-69
2021/12/26 12:08:43;;;;;;;4.47;1.60;;;;;;;1.49;46.96;100127.44;5588153;31;34614;-68
2021/12/26 12:12:07;;;;;;;5.32;2.05;;;;;;;1.61;47.10;100121.25;5591190;31;34607;-67
2021/12/26 12:15:09;;;;;;;8.10;1.65;;;;;;;2.03;46.32;100120.56;5591111;31;33997;-68
2021/12/26 12:18:22;;;;;;;2.90;1.58;;;;;;;1.96;45.95;100124.63;5590783;31;34104;-69
2021/12/26 12:21:31;;;;;;;3.75;1.70;;;;;;;2.44;44.62;100122.53;5591158;31;34526;-68
2021/12/26 12:24:34;;;;;;;3.05;1.83;;;;;;;2.37;44.70;100131.81;5590770;31;33955;-68
2021/12/26 12:27:36;;;;;;;8.60;1.90;;;;;;;2.63;44.48;100140.22;5590598;31;34591;-69
2021/12/26 12:30:45;;;;;;;3.87;1.70;;;;;;;2.45;44.26;100139.09;5590519;31;34544;-67
2021/12/26 12:34:07;;;;;;;3.08;1.58;;;;;;;2.07;45.01;100129.03;5590413;31;34784;-69
2021/12/26 12:37:10;;;;;;;4.20;1.70;;;;;;;2.39;43.95;100129.94;5590424;31;34359;-69
2021/12/26 12:40:29;;;;;;;5.85;2.40;;;;;;;2.38;45.06;100123.03;5590356;31;34167;-69
2021/12/26 12:43:44;;;;;;;5.03;1.80;;;;;;;2.47;45.32;100114.44;5590970;31;34287;-67
2021/12/26 12:46:54;;;;;;;3.20;1.48;;;;;;;2.55;45.06;100111.22;5590223;31;33900;-69
2021/12/26 12:50:03;;;;;;;3.08;1.50;;;;;;;2.09;44.33;100117.47;5589674;31;33999;-68
2021/12/26 12:53:05;;;;;;;3.15;1.85;;;;;;;1.86;43.32;100107.12;5590400;31;34006;-68
2021/12/26 12:56:29;;;;;;;4.03;1.52;;;;;;;2.04;44.73;100103.91;5589720;31;34050;-68
2021/12/26 12:59:42;;;;;;;3.17;1.30;;;;;;;1.96;42.71;100105.47;5590134;31;35131;-68
2021/12/26 13:02:59;;;;;;;3.70;1.37;;;;;;;2.21;41.70;100093.91;5590608;31;35229;-69
2021/12/26 13:06:08;;;;;;;4.53;1.40;;;;;;;1.75;41.54;100095.72;5590242;31;35635;-67
2021/12/26 13:09:14;;;;;;;3.05;1.52;;;;;;;1.85;41.43;100088.00;5590246;31;34065;-66
2021/12/26 13:12:18;;;;;;;4.35;1.40;;;;;;;1.95;39.59;100088.94;5589543;31;33916;-67
2021/12/26 13:15:20;;;;;;;6.70;2.05;;;;;;;1.71;40.71;100083.84;5590177;31;34013;-68
2021/12/26 13:18:27;;;;;;;4.93;1.60;;;;;;;1.87;42.10;100070.41;5590158;31;34346;-66
2021/12/26 13:21:30;;;;;;;3.35;1.40;;;;;;;1.84;40.37;100075.84;5589100;31;33961;-67
2021/12/26 13:24:40;;;;;;;2.95;1.52;;;;;;;1.69;40.97;100072.66;5589975;31;33884;-66
2021/12/26 13:27:43;;;;;;;3.05;1.62;;;;;;;1.69;41.59;100072.66;5590106;31;34055;-67
2021/12/26 13:30:53;;;;;;;5.25;1.55;;;;;;;1.52;42.42;100064.47;5589967;31;33951;-70
2021/12/26 13:33:58;;;;;;;3.37;1.42;;;;;;;1.63;43.13;100072.31;5590058;31;34132;-67
2021/12/26 13:37:05;;;;;;;4.37;1.90;;;;;;;1.72;41.24;100071.59;5589961;31;34091;-67
2021/12/26 13:40:10;;;;;;;3.67;1.73;;;;;;;1.72;42.46;100074.22;5589815;31;33987;-67
2021/12/26 13:43:13;;;;;;;3.65;1.90;;;;;;;1.67;42.24;100068.50;5589947;31;33999;-67
2021/12/26 13:46:20;;;;;;;3.17;1.60;;;;;;;1.50;42.27;100080.25;5589922;31;33965;-67
2021/12/26 13:49:22;;;;;;;5.60;2.08;;;;;;;1.39;43.98;100077.66;5589190;31;35237;-67
2021/12/26 13:52:25;;;;;;;4.47;1.73;;;;;;;1.38;44.92;100078.59;5589804;31;35204;-67
2021/12/26 13:55:32;;;;;;;3.62;1.83;;;;;;;1.34;43.63;100073.72;5589892;31;34100;-68
2021/12/26 13:58:39;;;;;;;3.53;1.80;;;;;;;1.31;43.41;100069.53;5589847;31;35204;-67
2021/12/26 14:01:42;;;;;;;4.90;2.17;;;;;;;1.28;43.23;100081.06;5589687;31;34581;-67
2021/12/26 14:04:54;;;;;;;2.72;1.65;;;;;;;1.23;44.25;100083.19;5589065;31;33970;-67
2021/12/26 14:08:01;;;;;;;6.25;1.87;;;;;;;1.10;44.77;100092.91;5589699;31;34306;-67
2021/12/26 14:11:09;;;;;;;4.57;1.95;;;;;;;1.12;45.36;100098.00;5589466;31;33974;-67
2021/12/26 14:14:12;;;;;;;5.82;2.15;;;;;;;1.10;47.36;100094.69;5589577;31;33830;-67
2021/12/26 14:17:15;;;;;;;5.05;2.62;;;;;;;1.10;45.72;100107.75;5589574;31;34592;-68
2021/12/26 14:20:18;;;;;;;3.58;1.95;;;;;;;0.95;46.38;100101.87;5588747;31;34678;-67
2021/12/26 14:23:27;;;;;;;11.35;2.30;;;;;;;0.83;46.67;100115.81;5589505;31;33976;-67
2021/12/26 14:26:38;;;;;;;4.35;2.22;;;;;;;0.89;46.43;100107.56;5589303;31;34319;-67
2021/12/26 14:29:41;;;;;;;3.85;2.20;;;;;;;0.73;47.80;100101.78;5589492;31;34652;-68
2021/12/26 14:32:58;;;;;;;4.28;2.05;;;;;;;0.76;47.96;100106.78;5588551;31;35224;-67